• Join FlightAware (Why Join?)
  • Login
  • US Flag 
07:04PM EST


 

Airport Tracker/Info


-or-


 

Live Flight TrackerFlight Track Log ✈ EGF4174 ✈ 27-Apr-2013 ✈ KSYR - KORD

Flight Track Log - Related Links

Times and Time Zones

All times are in EDT time to prevent confusion due to time zone crossing. See the EGF4174 flight status page for this flight to view local times or setup timezone preferences in your user account.

Time Position Orientation Groundspeed Altitude Reporting Facility
EDT Latitude Longitude Course Direction KTS MPH feet Rate Location/Type
05:21PM 43.1086 -76.1036 286° West 151 174 900  Level Boston Center
05:23PM 43.1558 -76.0608 33° Northeast 220 253 5,100 2,520 Climbing Boston Center
05:24PM 43.1875 -76.4375 324° Northwest  Level FlightAware Approximate
05:25PM 43.2073 -76.5510 281° West  Level FlightAware Approximate
05:25PM 43.1817 -76.2550 280° West 218 251 10,800  Level Cleveland Center
05:26PM 43.2283 -76.6707 286° West  Level FlightAware Approximate
05:26PM 43.1733 -76.3667 264° West 257 296 12,600  Level Cleveland Center
05:27PM 43.2536 -76.7889 286° West  Level FlightAware Approximate
05:27PM 43.1650 -76.4842 264° West 297 342 15,100  Level Cleveland Center
05:28PM 43.1592 -76.6125 266° West 322 371 16,800 1,800 Climbing Cleveland Center
05:29PM 43.1467 -76.7386 262° West 333 383 18,800 2,400 Climbing Cleveland Center
05:30PM 43.1361 -76.8617 263° West 338 389 21,600 2,580 Climbing Cleveland Center
05:31PM 43.1358 -76.9842 270° West 332 382 24,000 2,280 Climbing Cleveland Center
05:32PM 43.1375 -77.1036 271° West 332 382 26,200 1,860 Climbing Cleveland Center
05:33PM 43.1389 -77.2286 271° West 332 382 27,800 1,500 Climbing Cleveland Center
05:34PM 43.1383 -77.3539 270° West 332 382 29,300 1,260 Climbing Cleveland Center
05:35PM 43.1397 -77.4847 271° West 332 382 30,400 1,080 Climbing Cleveland Center
05:36PM 43.1372 -77.6242 269° West 349 402 31,500 1,020 Climbing Cleveland Center
05:37PM 43.1386 -77.7664 271° West 365 420 32,500 960 Climbing Cleveland Center
05:38PM 43.1381 -77.9144 270° West 378 435 33,500 1,020 Climbing Cleveland Center
05:39PM 43.1372 -78.0653 270° West 391 450 34,600 960 Climbing Cleveland Center
05:40PM 43.1361 -78.2133 269° West 396 456 35,500 660 Climbing Cleveland Center
05:41PM 43.1372 -78.3669 271° West 401 461 36,000 240 Climbing Cleveland Center
05:42PM 43.1336 -78.5150 268° West 401 461 36,000  Level Cleveland Center
05:43PM 43.1342 -78.6628 270° West 401 461 36,000  Level Cleveland Center
05:44PM 43.1322 -78.8108 269° West 401 461 36,000  Level Cleveland Center
05:45PM 43.1167 -78.8833 254° West 390 449 36,000  Level Toronto Center
05:46PM 43.1167 -79.0333 270° West 390 449 36,000  Level Toronto Center
05:47PM 43.1167 -79.1833 270° West 390 449 36,000  Level Toronto Center
05:48PM 43.1167 -79.3333 270° West 390 449 36,000  Level Toronto Center
05:49PM 43.1167 -79.4667 270° West 390 449 36,000  Level Toronto Center
05:50PM 43.1167 -79.6167 270° West 380 437 36,000  Level Toronto Center
05:51PM 43.1000 -79.7667 261° West 380 437 36,000  Level Toronto Center
05:52PM 43.1000 -79.9000 270° West 380 437 36,000  Level Toronto Center
05:53PM 43.1000 -80.0500 270° West 380 437 36,000  Level Toronto Center
05:54PM 43.1000 -80.2000 270° West 380 437 36,000  Level Toronto Center
05:55PM 43.1000 -80.3333 270° West 380 437 36,000  Level Toronto Center
05:56PM 43.0833 -80.5000 262° West 380 437 36,000  Level Toronto Center
05:57PM 43.0833 -80.6333 270° West 380 437 36,000  Level Toronto Center
05:58PM 43.0833 -80.7667 270° West 380 437 36,000  Level Toronto Center
05:59PM 43.0667 -80.9167 261° West 380 437 36,000  Level Toronto Center
06:00PM 43.0667 -81.0667 270° West 380 437 36,000  Level Toronto Center
06:01PM 43.0667 -81.2000 270° West 380 437 36,000  Level Toronto Center
06:02PM 43.0500 -81.3500 261° West 380 437 36,000  Level Toronto Center
06:03PM 43.0500 -81.5000 270° West 380 437 36,000  Level Toronto Center
06:04PM 43.0500 -81.6333 270° West 380 437 36,000  Level Toronto Center
06:05PM 43.0500 -81.8000 270° West 380 437 36,000  Level Toronto Center
06:06PM 43.0333 -81.9333 260° West 380 437 36,000  Level Toronto Center
06:07PM 43.0333 -82.1000 270° West 380 437 36,000  Level Toronto Center
06:08PM 43.0333 -82.2333 270° West 380 437 36,000  Level Toronto Center
06:09PM 43.0167 -82.3667 260° West 380 437 36,000  Level Toronto Center
06:10PM 43.0167 -82.5333 270° West 380 437 36,000 -120 Level Toronto Center
06:11PM 43.0000 -82.6667 260° West 380 437 35,800 -900 Descending Toronto Center
06:12PM 43.0000 -82.8000 270° West 370 426 34,300 -1,440 Descending Toronto Center
06:13PM 43.0033 -82.9253 272° West 386 444 33,200 -1,380 Descending Cleveland Center
06:14PM 42.9939 -83.0725 265° West 386 444 31,800 -1,200 Descending Cleveland Center
06:15PM 42.9803 -83.2253 263° West 399 459 30,800 -900 Descending Cleveland Center
06:16PM 42.9722 -83.3867 266° West 411 473 30,000 -420 Descending Cleveland Center
06:17PM 42.9597 -83.5478 264° West 423 487 30,000  Level Cleveland Center
06:18PM 42.9492 -83.7092 265° West 428 493 30,000  Level Cleveland Center
06:19PM 42.9364 -83.8700 264° West 428 493 30,000  Level Cleveland Center
06:20PM 42.9256 -84.0342 265° West 428 493 30,000  Level Cleveland Center
06:21PM 42.9119 -84.1978 264° West 433 498 30,000  Level Cleveland Center
06:22PM 42.8933 -84.4644 265° West 434 499 30,000  Level Chicago Center
06:23PM 42.8803 -84.6303 264° West 440 506 30,000  Level Chicago Center
06:24PM 42.8628 -84.7936 262° West 438 504 30,000  Level Chicago Center
06:25PM 42.8461 -84.9575 262° West 437 503 30,000  Level Chicago Center
06:26PM 42.8286 -85.1194 262° West 435 501 30,000  Level Chicago Center
06:27PM 42.8106 -85.2842 262° West 440 506 30,000 -780 Level Chicago Center
06:28PM 42.7883 -85.4803 261° West 437 503 28,500 -1,680 Descending Chicago Center
06:29PM 42.7600 -85.6447 257° West 443 510 26,600 -1,920 Descending Chicago Center
06:30PM 42.7300 -85.8092 256° West 445 512 24,700 -1,800 Descending Chicago Center
06:32PM 42.7011 -85.9700 256° West 436 502 23,000 -1,680 Descending Chicago Center
06:33PM 42.6722 -86.1286 256° West 431 496 21,300 -1,500 Descending Chicago Center
06:34PM 42.6439 -86.2850 256° West 425 489 20,000 -660 Descending Chicago Center
06:35PM 42.6150 -86.4358 255° West 416 479 20,000 -300 Level Chicago Center
06:36PM 42.5858 -86.5894 256° West 418 481 19,500 -1,320 Descending Chicago Center
06:37PM 42.5528 -86.7689 256° West 417 480 17,300 -2,220 Descending Chicago Center
06:38PM 42.5111 -86.9092 248° West 395 455 15,000 -2,100 Descending Chicago Center
06:39PM 42.4736 -87.0439 249° West 382 440 13,000 -1,860 Descending Chicago Center
06:40PM 42.4392 -87.1714 250° West 365 420 11,200 -1,500 Descending Chicago Center
06:41PM 42.4047 -87.2933 249° West 349 402 10,000 -600 Descending Chicago Center
06:42PM 42.3722 -87.4097 249° West 352 405 10,000 -60 Level Chicago Center
06:43PM 42.3272 -87.5436 246° West 326 375 9,900 -540 Descending Chicago Center
06:44PM 42.2678 -87.6086 219° Southwest 277 319 8,900 -1,080 Descending Chicago Center
06:45PM 42.2161 -87.6767 224° Southwest 266 306 7,700 -960 Descending Chicago Center
06:46PM 42.2158 -87.7756 270° West 266 306 7,000 -360 Descending Chicago Center
06:47PM 42.2161 -87.8742 270° West 266 306 7,000  Level Chicago Center
06:48PM 42.2169 -87.9661 271° West 251 289 7,000  Level Chicago Center
06:49PM 42.2328 -88.0642 282° West 234 269 7,000 -720 Level Chicago Center
06:50PM 42.2164 -88.1389 254° West 229 264 5,600 -1,080 Descending Chicago Center
06:51PM 42.1600 -88.1250 170° South 211 243 4,900 -840 Descending Chicago Center
06:52PM 42.1203 -88.0808 140° Southeast 188 216 4,000 -960 Descending Chicago Center
06:52PM 42.1167 -88.0667 109° East 187 215 3,700 -1,080 Descending Chicago TRACON
06:53PM 42.0667 -88.0167 143° Southeast 177 204 2,700 -1,020 Descending Chicago TRACON